Time;durP1;ratioP1;P1;durP2;ratioP2;P2;SDS_P1;SDS_P2;PMS_P1;PMS_P2;Temp;Humidity;BMP_temperature;BMP_pressure;BME280_temperature;BME280_humidity;BME280_pressure;Samples;Min_cycle;Max_cycle;Signal;HPM_P1;HPM_P2
2022/04/11 00:00:55;;;;;;;7.13;3.07;;;-0.20;1.00;;;;;;5138569;27;20473;-32
2022/04/11 00:03:21;;;;;;;6.70;3.20;;;-0.20;1.00;;;;;;5120908;27;20127;-31
2022/04/11 00:05:47;;;;;;;12.33;4.10;;;-0.20;1.00;;;;;;5138099;27;20035;-31
2022/04/11 00:08:17;;;;;;;11.50;3.87;;;-0.30;1.00;;;;;;5120260;27;20055;-31
2022/04/11 00:10:43;;;;;;;7.53;3.60;;;-0.30;1.00;;;;;;5138617;27;20465;-31
2022/04/11 00:13:11;;;;;;;7.80;4.03;;;-0.20;1.00;;;;;;5138101;27;20050;-31
2022/04/11 00:15:45;;;;;;;7.60;3.27;;;-0.20;1.00;;;;;;5103142;27;20436;-31
2022/04/11 00:18:18;;;;;;;9.73;3.57;;;-0.30;1.00;;;;;;5103673;27;20047;-31
2022/04/11 00:20:43;;;;;;;7.07;3.40;;;-0.30;1.00;;;;;;5121179;27;20069;-32
2022/04/11 00:23:11;;;;;;;5.93;3.60;;;-0.40;1.00;;;;;;5137858;27;20538;-31
2022/04/11 00:25:42;;;;;;;6.93;3.30;;;-0.40;1.00;;;;;;5138500;27;20128;-31
2022/04/11 00:28:08;;;;;;;8.27;3.30;;;-0.40;1.00;;;;;;5138299;27;20043;-32
2022/04/11 00:30:34;;;;;;;6.07;3.20;;;-0.40;1.00;;;;;;5119554;27;20135;-31
2022/04/11 00:33:00;;;;;;;9.27;3.57;;;-0.40;1.00;;;;;;5119308;27;20074;-31
2022/04/11 00:35:26;;;;;;;5.73;3.27;;;-0.40;1.00;;;;;;5118891;27;20468;-32
2022/04/11 00:37:52;;;;;;;11.30;3.87;;;-0.30;1.00;;;;;;5138072;27;20125;-32
2022/04/11 00:40:24;;;;;;;9.97;4.20;;;-0.20;1.00;;;;;;5137449;27;20046;-32
2022/04/11 00:42:50;;;;;;;11.82;3.67;;;-0.20;1.00;;;;;;5137494;27;20083;-32
2022/04/11 00:45:24;;;;;;;11.43;3.53;;;-0.10;1.00;;;;;;5084717;27;20074;-32
2022/04/11 00:47:49;;;;;;;10.10;3.50;;;-0.10;1.00;;;;;;5138215;27;20381;-31
2022/04/11 00:50:23;;;;;;;8.57;3.97;;;-0.10;1.00;;;;;;5137263;27;20043;-31
2022/04/11 00:52:53;;;;;;;;;;;-0.20;1.00;;;;;;5120327;27;20385;-32
2022/04/11 00:55:27;;;;;;;6.27;3.23;;;-0.10;1.00;;;;;;5136576;27;19926;-32
2022/04/11 00:58:00;;;;;;;5.90;3.63;;;-0.10;1.00;;;;;;5118729;27;20490;-31
2022/04/11 01:00:31;;;;;;;;;;;-0.20;1.00;;;;;;5120080;27;20083;-31
2022/04/11 01:02:56;;;;;;;7.50;3.37;;;-0.20;1.00;;;;;;5137944;27;19919;-32
2022/04/11 01:05:25;;;;;;;7.10;3.20;;;-0.30;1.00;;;;;;5136867;27;20503;-31
2022/04/11 01:07:56;;;;;;;6.93;2.97;;;-0.40;1.00;;;;;;5136941;27;20054;-31
2022/04/11 01:10:26;;;;;;;6.07;3.92;;;-0.40;1.00;;;;;;5086642;27;20426;-32
2022/04/11 01:12:51;;;;;;;8.43;4.03;;;-0.50;1.00;;;;;;5119087;27;20567;-31
2022/04/11 01:15:19;;;;;;;9.80;6.00;;;-0.40;1.00;;;;;;5137106;27;20078;-31
2022/04/11 01:17:47;;;;;;;8.50;3.63;;;-0.40;1.00;;;;;;5136693;27;20043;-31
2022/04/11 01:20:16;;;;;;;9.13;3.70;;;-0.50;1.00;;;;;;5136706;27;20047;-31
2022/04/11 01:22:46;;;;;;;9.57;4.40;;;-0.30;1.00;;;;;;5136732;27;20043;-31
2022/04/11 01:25:15;;;;;;;10.30;4.33;;;-0.60;1.00;;;;;;5102398;27;20035;-31
2022/04/11 01:27:45;;;;;;;6.33;4.00;;;-0.60;1.00;;;;;;5137407;27;20047;-32
2022/04/11 01:30:18;;;;;;;8.87;4.40;;;-0.60;1.00;;;;;;5119025;27;20047;-31
2022/04/11 01:32:48;;;;;;;9.73;4.03;;;-0.60;1.00;;;;;;5136833;27;20096;-31
2022/04/11 01:35:25;;;;;;;7.27;4.20;;;-0.70;1.00;;;;;;5136893;27;20054;-31
2022/04/11 01:37:51;;;;;;;8.80;3.97;;;-0.70;1.00;;;;;;5136715;27;20051;-31
2022/04/11 01:40:17;;;;;;;9.77;4.80;;;-0.80;1.00;;;;;;5136287;27;20502;-31
2022/04/11 01:42:48;;;;;;;11.50;4.40;;;-0.80;1.00;;;;;;5117651;27;20050;-32
2022/04/11 01:45:16;;;;;;;16.10;5.00;;;-0.80;35.00;;;;;;5118175;27;20088;-31
2022/04/11 01:47:49;;;;;;;10.17;4.30;;;-0.80;38.00;;;;;;5136159;27;20042;-32
2022/04/11 01:50:15;;;;;;;10.45;4.32;;;-0.90;44.00;;;;;;5117993;27;20051;-31
2022/04/11 01:52:40;;;;;;;10.30;4.47;;;-0.90;48.70;;;;;;5100961;27;20047;-31
2022/04/11 01:55:09;;;;;;;7.03;3.83;;;-1.00;61.80;;;;;;5117894;27;20043;-31
2022/04/11 01:57:39;;;;;;;9.53;4.10;;;-1.00;68.60;;;;;;5101361;27;20121;-31
2022/04/11 02:00:06;;;;;;;11.73;5.10;;;-1.00;82.10;;;;;;5117889;27;20404;-31
2022/04/11 02:02:31;;;;;;;11.33;4.83;;;-1.00;87.50;;;;;;5135861;27;20100;-32
2022/04/11 02:04:59;;;;;;;10.47;4.73;;;-1.00;88.60;;;;;;5135755;27;20035;-31
2022/04/11 02:07:27;;;;;;;10.90;4.87;;;-1.00;92.40;;;;;;5135668;27;20480;-31
2022/04/11 02:09:58;;;;;;;9.67;4.17;;;-1.00;93.70;;;;;;5135784;27;20047;-32
2022/04/11 02:12:28;;;;;;;10.00;5.03;;;-1.00;99.90;;;;;;5135982;27;20120;-31
2022/04/11 02:14:56;;;;;;;11.53;5.00;;;-1.00;99.90;;;;;;5118366;27;20085;-32
2022/04/11 02:17:22;;;;;;;10.13;5.30;;;-1.00;99.90;;;;;;5136385;27;20039;-32
2022/04/11 02:19:48;;;;;;;11.07;5.03;;;-1.00;99.90;;;;;;5117204;27;20043;-31
2022/04/11 02:22:13;;;;;;;9.63;4.97;;;-1.00;99.90;;;;;;5135492;27;20070;-32
2022/04/11 02:24:39;;;;;;;12.07;5.40;;;-1.00;99.90;;;;;;5100854;27;20047;-32
2022/04/11 02:27:05;;;;;;;7.80;5.10;;;-1.00;99.90;;;;;;5135461;27;20051;-32
2022/04/11 02:29:31;;;;;;;10.77;5.80;;;-1.00;99.90;;;;;;5100635;27;20043;-31
2022/04/11 02:31:59;;;;;;;14.23;7.53;;;-0.90;99.90;;;;;;5116976;27;20051;-32
2022/04/11 02:34:25;;;;;;;8.73;4.97;;;-0.90;99.90;;;;;;5117026;27;20176;-32
2022/04/11 02:36:51;;;;;;;11.30;5.83;;;-0.90;99.90;;;;;;5099814;27;20130;-31
2022/04/11 02:39:21;;;;;;;13.87;5.67;;;-0.90;99.90;;;;;;5100085;27;20126;-32
2022/04/11 02:41:49;;;;;;;9.53;5.20;;;-0.90;99.90;;;;;;5117002;27;20047;-32
2022/04/11 02:44:15;;;;;;;23.87;6.43;;;-0.90;99.90;;;;;;5134688;27;20481;-33
2022/04/11 02:46:44;;;;;;;8.77;5.27;;;-1.00;99.90;;;;;;5135031;27;20043;-32
2022/04/11 02:49:10;;;;;;;13.47;5.37;;;-1.00;99.90;;;;;;5117550;27;20473;-32
2022/04/11 02:51:36;;;;;;;9.87;5.10;;;-1.00;99.90;;;;;;5116673;27;20039;-32
2022/04/11 02:54:07;;;;;;;9.53;5.87;;;-1.00;99.90;;;;;;5116895;27;20105;-32
2022/04/11 02:56:36;;;;;;;7.70;5.27;;;-1.00;99.90;;;;;;5135559;27;20438;-32
2022/04/11 02:59:04;;;;;;;11.10;5.87;;;-1.00;99.90;;;;;;5134862;27;20046;-31
2022/04/11 03:01:32;;;;;;;12.60;5.70;;;-1.00;99.90;;;;;;5117094;27;20457;-32
2022/04/11 03:03:59;;;;;;;11.07;5.80;;;-1.00;99.90;;;;;;5116479;27;20039;-31
2022/04/11 03:06:25;;;;;;;11.23;5.43;;;-0.90;99.90;;;;;;5134840;27;20058;-31
2022/04/11 03:08:53;;;;;;;12.20;5.60;;;-1.00;99.90;;;;;;5099708;27;20043;-32
2022/04/11 03:11:21;;;;;;;12.70;5.77;;;-0.90;99.90;;;;;;5116805;27;20378;-32
2022/04/11 03:13:48;;;;;;;11.30;5.77;;;-1.00;99.90;;;;;;5112767;28;20099;-32
2022/04/11 03:16:14;;;;;;;15.63;7.53;;;-0.90;99.90;;;;;;5113470;28;20060;-32
2022/04/11 03:18:40;;;;;;;14.10;5.60;;;-0.90;1.00;;;;;;5113558;28;20048;-32
2022/04/11 03:21:08;;;;;;;12.00;5.63;;;-0.80;1.00;;;;;;5114105;28;20051;-31
2022/04/11 03:23:36;;;;;;;13.13;6.13;;;-0.70;1.00;;;;;;5114605;28;20093;-31
2022/04/11 03:26:02;;;;;;;14.27;6.87;;;-0.40;1.00;;;;;;5113087;28;20381;-32
2022/04/11 03:28:30;;;;;;;14.00;6.33;;;-0.60;1.00;;;;;;5114056;28;20126;-32
2022/04/11 03:30:56;;;;;;;10.63;5.63;;;-0.60;1.00;;;;;;5113413;28;20101;-32
2022/04/11 03:33:26;;;;;;;11.97;5.40;;;-0.50;1.00;;;;;;5114252;28;20043;-32
2022/04/11 03:35:52;;;;;;;11.70;5.23;;;-0.50;1.00;;;;;;5114229;28;20047;-33
2022/04/11 03:38:24;;;;;;;8.27;5.43;;;-0.40;1.00;;;;;;5114002;28;20458;-32
2022/04/11 03:40:49;;;;;;;14.70;5.57;;;-0.30;1.00;;;;;;5112764;28;20043;-32
2022/04/11 03:43:21;;;;;;;11.13;5.87;;;-0.20;1.00;;;;;;5096341;28;20134;-31
2022/04/11 03:45:49;;;;;;;17.40;6.30;;;-0.10;7.80;;;;;;5112965;28;20055;-32
2022/04/11 03:48:15;;;;;;;11.70;5.43;;;0.00;30.40;;;;;;5114683;28;20039;-32
2022/04/11 03:50:41;;;;;;;8.90;4.90;;;0.00;51.80;;;;;;5112639;28;20532;-32
2022/04/11 03:53:12;;;;;;;8.77;4.87;;;0.00;65.50;;;;;;5113805;28;20485;-32
2022/04/11 03:55:42;;;;;;;8.27;4.83;;;0.10;62.40;;;;;;5113413;28;20485;-33
2022/04/11 03:58:10;;;;;;;8.53;4.70;;;0.10;78.40;;;;;;5113812;28;20057;-32
2022/04/11 04:00:39;;;;;;;7.03;4.27;;;0.10;96.30;;;;;;5114033;28;20148;-32
2022/04/11 04:03:13;;;;;;;7.70;4.23;;;0.20;95.60;;;;;;5112592;28;20131;-32
2022/04/11 04:05:41;;;;;;;8.03;5.13;;;0.30;99.90;;;;;;5113254;28;20039;-32
2022/04/11 04:08:10;;;;;;;12.80;5.37;;;0.40;99.90;;;;;;5114268;28;20040;-33
2022/04/11 04:10:36;;;;;;;10.90;4.80;;;0.50;99.90;;;;;;5096040;28;20408;-32
2022/04/11 04:13:05;;;;;;;9.43;4.20;;;0.60;99.90;;;;;;5115843;28;20043;-32
2022/04/11 04:15:31;;;;;;;10.67;4.30;;;0.60;99.90;;;;;;5135033;28;20047;-32
2022/04/11 04:17:56;;;;;;;9.97;4.07;;;0.70;99.90;;;;;;5116198;28;20365;-32
2022/04/11 04:20:26;;;;;;;10.07;4.13;;;0.70;99.90;;;;;;5134132;28;20050;-32
2022/04/11 04:22:53;;;;;;;8.87;4.00;;;0.80;99.90;;;;;;5099808;28;20050;-32
2022/04/11 04:25:18;;;;;;;9.03;3.77;;;0.80;99.90;;;;;;5082049;28;20043;-32
2022/04/11 04:27:44;;;;;;;11.23;4.03;;;0.80;99.90;;;;;;5115463;28;20035;-32
2022/04/11 04:30:10;;;;;;;6.73;3.83;;;0.90;99.90;;;;;;5134013;27;20053;-32
2022/04/11 04:32:35;;;;;;;9.27;3.17;;;0.90;99.90;;;;;;5137052;27;20043;-32
2022/04/11 04:35:01;;;;;;;7.27;3.40;;;0.90;99.90;;;;;;5137495;27;20465;-32
2022/04/11 04:37:27;;;;;;;7.30;3.40;;;0.90;99.90;;;;;;5137563;27;20042;-32
2022/04/11 04:39:53;;;;;;;6.27;2.73;;;1.00;99.90;;;;;;5119676;27;20083;-32
2022/04/11 04:42:26;;;;;;;5.13;3.00;;;1.00;99.90;;;;;;5137445;27;20039;-32
2022/04/11 04:44:55;;;;;;;10.00;4.18;;;1.00;99.90;;;;;;5119849;27;20043;-32
2022/04/11 04:47:21;;;;;;;12.37;3.33;;;1.10;99.90;;;;;;5137935;27;20452;-32
2022/04/11 04:49:47;;;;;;;8.63;3.07;;;1.10;99.90;;;;;;5137002;27;20511;-32
2022/04/11 04:52:13;;;;;;;4.83;3.27;;;1.10;99.90;;;;;;5137595;27;20381;-32
2022/04/11 04:54:39;;;;;;;8.80;3.23;;;1.20;99.90;;;;;;5119214;27;20043;-32
2022/04/11 04:57:06;;;;;;;7.13;2.87;;;1.20;99.90;;;;;;5085163;27;20042;-32
2022/04/11 04:59:32;;;;;;;6.93;3.27;;;1.30;99.90;;;;;;5119290;27;20078;-32
2022/04/11 05:01:58;;;;;;;5.60;3.03;;;1.30;99.90;;;;;;5136988;27;20092;-32
2022/04/11 05:04:24;;;;;;;6.97;3.33;;;1.40;99.90;;;;;;5101898;27;20051;-33
2022/04/11 05:06:50;;;;;;;6.07;2.90;;;1.40;99.90;;;;;;5118878;27;20050;-32
2022/04/11 05:09:16;;;;;;;6.87;2.60;;;1.50;99.90;;;;;;5101237;27;20488;-32
2022/04/11 05:11:42;;;;;;;5.13;2.60;;;1.50;99.90;;;;;;5118620;27;20374;-32
2022/04/11 05:14:08;;;;;;;10.03;3.57;;;1.60;99.90;;;;;;5101110;27;20062;-32
2022/04/11 05:16:33;;;;;;;7.57;2.73;;;1.70;99.90;;;;;;5118504;27;20082;-33
2022/04/11 05:18:59;;;;;;;6.63;2.57;;;1.90;99.90;;;;;;5136794;27;20100;-32
2022/04/11 05:21:25;;;;;;;4.73;2.37;;;1.80;99.90;;;;;;5136576;27;20054;-32
2022/04/11 05:23:51;;;;;;;7.57;2.77;;;2.00;99.90;;;;;;5136486;27;20046;-32
2022/04/11 05:26:18;;;;;;;7.27;2.47;;;1.90;97.30;;;;;;5118360;27;20084;-32
2022/04/11 05:28:44;;;;;;;6.40;2.60;;;2.00;78.60;;;;;;5118429;27;20047;-32
2022/04/11 05:31:10;;;;;;;10.57;2.77;;;2.00;19.90;;;;;;5136464;27;20481;-33
2022/04/11 05:33:36;;;;;;;6.63;2.20;;;2.00;1.00;;;;;;5136418;27;20059;-32
2022/04/11 05:36:02;;;;;;;6.30;2.90;;;2.10;1.00;;;;;;5118423;27;20100;-33
2022/04/11 05:38:30;;;;;;;6.83;2.87;;;2.00;1.00;;;;;;5135947;27;20050;-32
2022/04/11 05:41:00;;;;;;;12.33;2.87;;;2.10;1.00;;;;;;5119033;27;20047;-32
2022/04/11 05:43:26;;;;;;;8.80;2.93;;;2.20;1.00;;;;;;5117307;27;20054;-32
2022/04/11 05:45:52;;;;;;;8.73;2.70;;;2.30;1.00;;;;;;5117610;27;20051;-32
2022/04/11 05:48:18;;;;;;;8.95;2.78;;;2.40;1.00;;;;;;5100969;27;20047;-32
2022/04/11 05:50:43;;;;;;;7.63;2.90;;;2.40;1.00;;;;;;5117703;27;20096;-32
2022/04/11 05:53:09;;;;;;;5.43;2.20;;;2.50;1.00;;;;;;5117667;27;20043;-32
2022/04/11 05:55:35;;;;;;;6.90;2.63;;;2.50;99.90;;;;;;5100594;27;20075;-32
2022/04/11 05:58:01;;;;;;;5.43;2.42;;;2.50;99.90;;;;;;5117567;27;20053;-32
2022/04/11 06:00:26;;;;;;;7.78;2.90;;;2.50;99.90;;;;;;5136357;27;20417;-32
2022/04/11 06:02:52;;;;;;;7.13;3.00;;;2.50;99.90;;;;;;5136049;27;20511;-32
2022/04/11 06:05:18;;;;;;;6.30;2.90;;;2.80;99.90;;;;;;5135682;27;20503;-32
2022/04/11 06:07:48;;;;;;;6.43;2.95;;;2.60;99.90;;;;;;5117556;27;20080;-32
2022/04/11 06:10:14;;;;;;;7.30;3.13;;;2.70;99.90;;;;;;5136289;27;20092;-33
2022/04/11 06:12:40;;;;;;;9.07;2.90;;;2.80;99.90;;;;;;5136161;27;20482;-32
2022/04/11 06:15:06;;;;;;;12.07;3.10;;;2.90;99.90;;;;;;5135043;27;20051;-32
2022/04/11 06:17:32;;;;;;;7.77;3.07;;;2.90;99.90;;;;;;5100278;27;20043;-33
2022/04/11 06:20:02;;;;;;;9.47;2.93;;;2.90;99.90;;;;;;5135423;27;20370;-32
2022/04/11 06:22:28;;;;;;;7.43;2.57;;;3.10;99.90;;;;;;5117618;27;20039;-32
2022/04/11 06:25:00;;;;;;;7.80;2.83;;;3.10;99.90;;;;;;5135734;27;20050;-33
2022/04/11 06:27:27;;;;;;;5.27;2.40;;;3.20;99.90;;;;;;5135286;27;20468;-32
2022/04/11 06:29:56;;;;;;;8.00;3.38;;;3.30;99.90;;;;;;5136027;27;20279;-32
2022/04/11 06:32:30;;;;;;;7.68;4.18;;;3.40;99.90;;;;;;5135177;27;20488;-32
2022/04/11 06:34:56;;;;;;;;;;;3.50;99.90;;;;;;5117426;27;20047;-33
2022/04/11 06:37:24;;;;;;;4.20;2.53;;;3.60;99.90;;;;;;5135923;27;19919;-32
2022/04/11 06:39:54;;;;;;;5.95;2.67;;;3.70;99.90;;;;;;5135111;27;20043;-33
2022/04/11 06:42:20;;;;;;;5.40;2.60;;;3.90;99.90;;;;;;5135028;27;20047;-33
2022/04/11 06:44:46;;;;;;;7.20;2.53;;;4.00;99.90;;;;;;5099625;27;20511;-33
2022/04/11 06:47:12;;;;;;;10.10;3.03;;;4.10;99.90;;;;;;5134946;27;20074;-33
2022/04/11 06:49:40;;;;;;;7.68;3.40;;;4.30;99.90;;;;;;5135141;27;20050;-34
2022/04/11 06:52:09;;;;;;;5.85;2.75;;;4.40;99.90;;;;;;5116808;27;20507;-32
2022/04/11 06:54:34;;;;;;;7.43;3.35;;;4.60;99.90;;;;;;5133993;27;20046;-34
2022/04/11 06:57:03;;;;;;;6.05;2.85;;;4.80;99.90;;;;;;5099699;27;20046;-33
2022/04/11 06:59:29;;;;;;;5.25;2.88;;;4.90;99.90;;;;;;5116969;27;20039;-32
2022/04/11 07:01:54;;;;;;;7.15;2.35;;;5.10;99.90;;;;;;5134734;27;20180;-33
2022/04/11 07:04:23;;;;;;;6.82;2.80;;;5.30;99.90;;;;;;5116266;27;20115;-32
2022/04/11 07:06:51;;;;;;;7.45;2.38;;;5.40;99.90;;;;;;5135543;27;20053;-33
2022/04/11 07:09:16;;;;;;;4.90;3.15;;;5.50;63.60;;;;;;5117380;28;20043;-33
2022/04/11 07:11:42;;;;;;;10.13;6.00;;;5.60;2.20;;;;;;5116429;28;20495;-33
2022/04/11 07:14:08;;;;;;;8.13;3.80;;;5.70;1.00;;;;;;5134167;27;20055;-33
2022/04/11 07:16:33;;;;;;;16.63;3.33;;;5.80;1.00;;;;;;5116345;28;20050;-32
2022/04/11 07:18:59;;;;;;;5.18;2.92;;;6.00;1.00;;;;;;5134256;28;20055;-33
2022/04/11 07:21:25;;;;;;;6.97;3.30;;;6.10;1.00;;;;;;5134492;28;20054;-32
2022/04/11 07:23:51;;;;;;;6.53;2.92;;;6.20;1.00;;;;;;5116084;28;20043;-32
2022/04/11 07:26:17;;;;;;;6.03;2.85;;;6.40;1.00;;;;;;5134384;28;20480;-33
2022/04/11 07:28:47;;;;;;;7.03;3.72;;;6.50;99.90;;;;;;5116745;28;20465;-33
2022/04/11 07:31:13;;;;;;;7.60;3.50;;;6.80;1.00;;;;;;5134463;28;20408;-33
2022/04/11 07:33:39;;;;;;;6.10;2.60;;;7.00;1.00;;;;;;5116326;28;20050;-33
2022/04/11 07:36:07;;;;;;;10.48;2.95;;;7.40;1.00;;;;;;5134312;28;20043;-33
2022/04/11 07:38:33;;;;;;;8.90;2.90;;;7.50;1.00;;;;;;5134378;28;20129;-33
2022/04/11 07:40:59;;;;;;;8.65;2.47;;;7.60;99.90;;;;;;5134386;28;20589;-33
2022/04/11 07:43:24;;;;;;;6.35;2.47;;;7.60;99.90;;;;;;5099108;28;20533;-32
2022/04/11 07:45:50;;;;;;;4.45;2.17;;;7.80;99.90;;;;;;5115993;28;20054;-33
2022/04/11 07:48:16;;;;;;;7.10;2.38;;;7.80;99.90;;;;;;5116132;28;20051;-33
2022/04/11 07:50:41;;;;;;;7.55;2.63;;;7.90;99.90;;;;;;5099168;28;20492;-33
2022/04/11 07:53:07;;;;;;;4.05;2.33;;;8.00;99.90;;;;;;5115954;28;20130;-33
2022/04/11 07:55:33;;;;;;;7.28;2.25;;;8.10;92.10;;;;;;5134171;28;20053;-33
2022/04/11 07:57:59;;;;;;;6.03;2.40;;;8.20;99.90;;;;;;5134716;28;20050;-32
2022/04/11 08:00:26;;;;;;;9.35;2.97;;;8.40;99.90;;;;;;5116307;28;20043;-33
2022/04/11 08:02:53;;;;;;;3.25;1.80;;;8.50;95.60;;;;;;5115814;28;20082;-32
2022/04/11 08:05:21;;;;;;;6.88;1.75;;;8.70;95.10;;;;;;5136052;27;20065;-33
2022/04/11 08:07:48;;;;;;;5.95;1.92;;;8.80;35.70;;;;;;5138060;27;20049;-32
2022/04/11 08:10:16;;;;;;;5.28;1.85;;;8.90;1.00;;;;;;5119679;27;20043;-33
2022/04/11 08:12:57;;;;;;;4.53;1.77;;;9.10;1.00;;;;;;5119786;27;20047;-33
2022/04/11 08:15:23;;;;;;;8.85;2.10;;;9.10;1.00;;;;;;5138478;27;20043;-32
2022/04/11 08:17:49;;;;;;;5.97;1.52;;;9.20;1.00;;;;;;5137820;27;20051;-32
2022/04/11 08:20:15;;;;;;;4.78;2.33;;;9.30;1.00;;;;;;5103162;27;20055;-33
2022/04/11 08:22:41;;;;;;;7.00;1.70;;;9.30;1.00;;;;;;5137714;27;20057;-34
2022/04/11 08:25:08;;;;;;;4.60;1.70;;;9.40;1.00;;;;;;5137673;27;20085;-33
2022/04/11 08:27:35;;;;;;;6.80;1.70;;;9.60;1.00;;;;;;5137643;27;20103;-32
2022/04/11 08:30:02;;;;;;;6.40;1.80;;;9.70;99.90;;;;;;5119505;27;20043;-33
2022/04/11 08:32:37;;;;;;;4.18;2.03;;;10.00;1.00;;;;;;5137557;27;20043;-33
2022/04/11 08:35:03;;;;;;;3.33;1.38;;;10.20;1.00;;;;;;5137570;27;20050;-32
2022/04/11 08:37:36;;;;;;;5.43;1.73;;;10.30;1.00;;;;;;5119376;27;20035;-34
2022/04/11 08:40:04;;;;;;;5.80;2.05;;;10.40;1.00;;;;;;5120426;27;20503;-33
2022/04/11 08:42:30;;;;;;;5.00;1.48;;;10.50;1.00;;;;;;5119890;27;20407;-32
2022/04/11 08:45:00;;;;;;;4.13;1.60;;;10.60;1.00;;;;;;5137343;27;20047;-32
2022/04/11 08:47:25;;;;;;;5.50;1.80;;;10.80;1.00;;;;;;5137274;27;20043;-33
2022/04/11 08:49:53;;;;;;;5.95;1.70;;;10.90;99.90;;;;;;5101795;27;20112;-33
2022/04/11 08:52:19;;;;;;;6.82;2.53;;;10.90;99.90;;;;;;5137226;27;20480;-33
2022/04/11 08:54:46;;;;;;;6.53;2.08;;;11.10;99.90;;;;;;5137425;27;20043;-33
2022/04/11 08:57:11;;;;;;;4.13;1.70;;;11.00;99.90;;;;;;5101955;27;20043;-33
2022/04/11 08:59:37;;;;;;;2.78;1.17;;;10.90;99.90;;;;;;5137551;27;20047;-33
2022/04/11 09:02:11;;;;;;;5.93;1.38;;;10.80;99.90;;;;;;5118693;27;20129;-34
2022/04/11 09:04:55;;;;;;;5.32;1.20;;;10.80;99.90;;;;;;5101292;27;20079;-33
2022/04/11 09:07:21;;;;;;;5.30;1.50;;;10.70;99.90;;;;;;5118848;27;20039;-34
2022/04/11 09:09:47;;;;;;;5.18;1.52;;;11.00;99.90;;;;;;5136912;27;20092;-33
2022/04/11 09:12:14;;;;;;;4.10;0.85;;;12.30;1.00;;;;;;5101480;27;20537;-33
2022/04/11 09:14:43;;;;;;;3.30;1.17;;;13.00;99.90;;;;;;5136700;27;20047;-33
2022/04/11 09:17:10;;;;;;;2.53;0.77;;;13.90;99.90;;;;;;5117612;27;20039;-33
2022/04/11 09:19:38;;;;;;;5.90;1.80;;;14.50;99.90;;;;;;5136705;27;20055;-33
2022/04/11 09:22:05;;;;;;;2.83;0.80;;;14.90;1.00;;;;;;5118521;27;20062;-33
2022/04/11 09:24:31;;;;;;;4.57;0.90;;;15.10;1.00;;;;;;5117829;27;20609;-33
2022/04/11 09:26:58;;;;;;;4.82;2.10;;;15.20;1.00;;;;;;5119259;27;20420;-32
2022/04/11 09:29:25;;;;;;;4.57;1.70;;;15.40;1.00;;;;;;5136645;27;20428;-33
2022/04/11 09:31:51;;;;;;;9.45;1.10;;;15.70;1.00;;;;;;5118644;27;20051;-32
2022/04/11 09:34:18;;;;;;;4.38;1.02;;;16.00;1.00;;;;;;5136996;27;20085;-32
2022/04/11 09:37:02;;;;;;;4.32;1.40;;;15.90;1.00;;;;;;5136252;27;20053;-32
2022/04/11 09:39:36;;;;;;;3.60;1.00;;;15.90;1.00;;;;;;5102018;27;20491;-32
2022/04/11 09:42:05;;;;;;;3.42;1.00;;;16.10;1.00;;;;;;5136560;27;20043;-31
2022/04/11 09:44:32;;;;;;;3.13;1.20;;;16.50;1.00;;;;;;5136679;27;20085;-32
2022/04/11 09:47:00;;;;;;;4.25;1.67;;;16.60;1.00;;;;;;5118461;27;20054;-32
2022/04/11 09:49:26;;;;;;;3.83;1.02;;;16.70;1.00;;;;;;5136591;27;20483;-32
2022/04/11 09:52:07;;;;;;;3.22;1.40;;;16.80;1.00;;;;;;5117732;27;20086;-32
2022/04/11 09:54:44;;;;;;;3.28;1.08;;;16.60;1.00;;;;;;5100781;27;20047;-32
2022/04/11 09:57:14;;;;;;;3.60;1.45;;;16.50;1.00;;;;;;5136538;27;20396;-31
2022/04/11 09:59:41;;;;;;;6.80;1.55;;;16.60;1.00;;;;;;5118587;27;20049;-31
2022/04/11 10:02:08;;;;;;;4.68;1.20;;;16.60;1.00;;;;;;5135803;27;20053;-32
2022/04/11 10:04:35;;;;;;;5.10;1.20;;;16.70;1.00;;;;;;5117385;27;20047;-32
2022/04/11 10:07:01;;;;;;;2.78;1.30;;;16.70;1.00;;;;;;5136277;27;20079;-32
2022/04/11 10:09:27;;;;;;;2.60;1.20;;;16.70;1.00;;;;;;5135654;27;20058;-32
2022/04/11 10:11:54;;;;;;;5.97;1.42;;;16.50;1.00;;;;;;5135612;27;20043;-32
2022/04/11 10:14:28;;;;;;;4.63;1.48;;;16.30;1.00;;;;;;5117060;27;20092;-31
2022/04/11 10:17:02;;;;;;;5.70;1.50;;;16.30;1.00;;;;;;5135584;27;20088;-32
2022/04/11 10:19:30;;;;;;;4.38;1.35;;;16.60;1.00;;;;;;5117306;27;20051;-32
2022/04/11 10:22:00;;;;;;;3.65;1.52;;;16.60;1.00;;;;;;5135485;27;20089;-32
2022/04/11 10:24:36;;;;;;;4.28;1.48;;;17.00;1.00;;;;;;5118055;27;20079;-32
2022/04/11 10:27:20;;;;;;;6.40;1.65;;;17.10;1.00;;;;;;5101024;27;20058;-32
2022/04/11 10:29:49;;;;;;;5.68;1.55;;;17.10;1.00;;;;;;5135255;27;20113;-32
2022/04/11 10:32:26;;;;;;;4.40;1.40;;;17.30;1.00;;;;;;5083420;27;20051;-31
2022/04/11 10:34:57;;;;;;;4.53;1.75;;;17.30;1.00;;;;;;5135747;27;20050;-31
2022/04/11 10:37:46;;;;;;;5.22;1.35;;;17.20;1.00;;;;;;5135165;27;20085;-31
2022/04/11 10:40:19;;;;;;;3.78;1.58;;;17.20;1.00;;;;;;5133053;27;20377;-32
2022/04/11 10:43:00;;;;;;;4.18;1.40;;;17.30;1.00;;;;;;5134988;27;20468;-32
2022/04/11 10:45:55;;;;;;;5.07;2.92;;;17.50;1.00;;;;;;5134895;27;20043;-32
2022/04/11 10:48:58;;;;;;;6.53;2.00;;;17.70;1.00;;;;;;5135834;27;20046;-32
2022/04/11 10:51:23;;;;;;;5.35;2.20;;;17.80;1.00;;;;;;5100215;27;20062;-32
2022/04/11 10:54:16;;;;;;;3.10;1.52;;;17.80;1.00;;;;;;5117066;27;20050;-32
2022/04/11 10:56:52;;;;;;;5.13;1.40;;;17.80;1.00;;;;;;5116529;27;20047;-31
2022/04/11 10:59:28;;;;;;;3.67;1.70;;;17.70;1.00;;;;;;5117253;27;20115;-32
2022/04/11 11:01:57;;;;;;;5.63;1.35;;;17.60;1.00;;;;;;5134803;27;20043;-32
2022/04/11 11:04:27;;;;;;;5.55;2.20;;;17.40;1.00;;;;;;5116521;27;20039;-31
2022/04/11 11:07:38;;;;;;;5.75;2.28;;;17.20;1.00;;;;;;5134773;27;20047;-32
2022/04/11 11:10:05;;;;;;;7.75;2.05;;;17.40;1.00;;;;;;5129445;27;20065;-31
2022/04/11 11:12:31;;;;;;;4.53;1.83;;;17.80;1.00;;;;;;5134675;27;20057;-31
2022/04/11 11:14:57;;;;;;;4.70;1.88;;;17.90;1.00;;;;;;5134893;27;20134;-31
2022/04/11 11:17:58;;;;;;;3.58;1.65;;;17.90;1.00;;;;;;5100211;27;20090;-31
2022/04/11 11:20:24;;;;;;;3.25;1.67;;;17.90;1.00;;;;;;5132045;28;20043;-31
2022/04/11 11:23:23;;;;;;;5.72;4.00;;;17.80;1.00;;;;;;5122750;28;20046;-32
2022/04/11 11:25:50;;;;;;;5.68;1.80;;;18.30;1.00;;;;;;5107949;28;20032;-31
2022/04/11 11:28:16;;;;;;;6.57;2.05;;;18.70;1.00;;;;;;5095443;28;20043;-32
2022/04/11 11:30:43;;;;;;;4.38;1.60;;;18.80;1.00;;;;;;5107306;28;20400;-32
2022/04/11 11:33:17;;;;;;;6.60;1.67;;;18.70;1.00;;;;;;5134463;28;20043;-32
2022/04/11 11:35:47;;;;;;;6.72;2.03;;;18.90;1.00;;;;;;5134059;28;20047;-32
2022/04/11 11:38:13;;;;;;;3.85;1.92;;;18.70;1.00;;;;;;5134150;28;20046;-31
2022/04/11 11:40:51;;;;;;;4.70;2.00;;;18.80;1.00;;;;;;5098967;28;20043;-31
2022/04/11 11:43:16;;;;;;;3.90;1.70;;;18.60;1.00;;;;;;5118343;28;20048;-31
2022/04/11 11:45:42;;;;;;;4.72;2.00;;;18.50;1.00;;;;;;5117910;28;20557;-31
2022/04/11 11:48:28;;;;;;;7.28;2.13;;;18.30;1.00;;;;;;5118748;28;20485;-31
2022/04/11 11:50:55;;;;;;;4.60;2.00;;;18.10;1.00;;;;;;5118968;27;20039;-31
2022/04/11 11:53:23;;;;;;;6.07;2.17;;;18.30;1.00;;;;;;5117905;28;20051;-31
2022/04/11 11:55:59;;;;;;;3.75;1.70;;;18.10;1.00;;;;;;5121571;27;20043;-31
2022/04/11 11:58:38;;;;;;;4.78;2.35;;;18.30;1.00;;;;;;5118847;27;20073;-31
2022/04/11 12:01:08;;;;;;;5.93;2.17;;;18.70;1.00;;;;;;5108739;27;20047;-31
2022/04/11 12:06:25;;;;;;;5.82;2.35;;;19.20;1.00;;;;;;5090173;27;20066;-32
2022/04/11 12:09:00;;;;;;;3.58;2.10;;;19.50;1.00;;;;;;5138647;27;20055;-31
2022/04/11 12:11:28;;;;;;;6.03;2.28;;;19.30;1.00;;;;;;5137924;27;20100;-31
2022/04/11 12:14:05;;;;;;;5.82;2.20;;;19.10;1.00;;;;;;5107587;28;20051;-31
2022/04/11 12:16:33;;;;;;;5.88;2.38;;;19.10;1.00;;;;;;5096980;28;20052;-31
2022/04/11 12:19:01;;;;;;;5.75;2.00;;;19.30;1.00;;;;;;5097497;28;20124;-31
2022/04/11 12:21:39;;;;;;;4.20;1.75;;;19.40;1.00;;;;;;5097038;28;20371;-32
2022/04/11 12:24:09;;;;;;;5.05;1.80;;;19.20;1.00;;;;;;5101786;28;20394;-32
2022/04/11 12:26:40;;;;;;;6.00;1.75;;;19.10;1.00;;;;;;5117215;28;20459;-31
2022/04/11 12:29:14;;;;;;;3.88;1.83;;;18.80;1.00;;;;;;5116807;28;20418;-32
2022/04/11 12:31:56;;;;;;;5.40;4.20;;;18.50;1.00;;;;;;5102217;28;20054;-31
2022/04/11 12:34:35;;;;;;;6.63;3.30;;;18.70;1.00;;;;;;5097870;28;20048;-31
2022/04/11 12:37:05;;;;;;;4.32;1.95;;;19.10;1.00;;;;;;5104531;28;20035;-31
2022/04/11 12:39:31;;;;;;;4.45;1.60;;;18.90;1.00;;;;;;5117755;28;20047;-31
2022/04/11 12:41:57;;;;;;;6.82;2.95;;;19.20;1.00;;;;;;5116875;28;20044;-31
2022/04/11 12:44:34;;;;;;;4.65;2.50;;;19.20;1.00;;;;;;5116013;28;20470;-31
2022/04/11 12:47:00;;;;;;;3.90;1.88;;;19.40;1.00;;;;;;5109694;28;20047;-31
2022/04/11 12:49:41;;;;;;;6.13;2.45;;;19.50;1.00;;;;;;5103645;28;20048;-32
2022/04/11 12:52:07;;;;;;;6.80;2.72;;;19.20;1.00;;;;;;5112348;28;20111;-31
2022/04/11 12:54:41;;;;;;;4.25;2.13;;;19.00;1.00;;;;;;5099615;28;20119;-31
2022/04/11 12:57:10;;;;;;;4.32;2.08;;;18.40;1.00;;;;;;5110143;27;20054;-31
2022/04/11 12:59:43;;;;;;;6.35;1.90;;;18.30;1.00;;;;;;5112816;28;20051;-31
2022/04/11 13:02:14;;;;;;;4.63;2.28;;;18.50;1.00;;;;;;5107714;28;20516;-31
2022/04/11 13:04:50;;;;;;;5.10;1.80;;;18.60;1.00;;;;;;5110374;28;20042;-32
2022/04/11 13:07:16;;;;;;;4.30;1.80;;;18.70;1.00;;;;;;5112966;28;20039;-32